sensor_id;sensor_type;location;lat;lon;timestamp;pressure;altitude;pressure_sealevel;temperature;humidity
51759;BME280;66684;47.568;18.734;2023-05-14T00:01:38;99904.84;;;11.49;100.00
51759;BME280;66684;47.568;18.734;2023-05-14T00:04:05;99902.16;;;11.46;100.00
51759;BME280;66684;47.568;18.734;2023-05-14T00:06:30;99897.19;;;11.50;100.00
51759;BME280;66684;47.568;18.734;2023-05-14T00:08:56;99905.12;;;11.55;100.00
51759;BME280;66684;47.568;18.734;2023-05-14T00:11:22;99886.94;;;11.53;100.00
51759;BME280;66684;47.568;18.734;2023-05-14T00:13:49;99897.09;;;11.49;100.00
51759;BME280;66684;47.568;18.734;2023-05-14T00:16:15;99890.97;;;11.47;100.00
51759;BME280;66684;47.568;18.734;2023-05-14T00:18:41;99887.78;;;11.52;100.00
51759;BME280;66684;47.568;18.734;2023-05-14T00:21:07;99885.91;;;11.50;100.00
51759;BME280;66684;47.568;18.734;2023-05-14T00:23:32;99877.09;;;11.45;100.00
51759;BME280;66684;47.568;18.734;2023-05-14T00:25:58;99880.94;;;11.54;100.00
51759;BME280;66684;47.568;18.734;2023-05-14T00:28:24;99874.88;;;11.54;100.00
51759;BME280;66684;47.568;18.734;2023-05-14T00:30:50;99873.22;;;11.56;100.00
51759;BME280;66684;47.568;18.734;2023-05-14T00:33:16;99878.16;;;11.50;100.00
51759;BME280;66684;47.568;18.734;2023-05-14T00:35:42;99872.81;;;11.45;100.00
51759;BME280;66684;47.568;18.734;2023-05-14T00:38:08;99871.94;;;11.45;100.00
51759;BME280;66684;47.568;18.734;2023-05-14T00:40:34;99868.53;;;11.46;100.00
51759;BME280;66684;47.568;18.734;2023-05-14T00:43:00;99873.94;;;11.52;100.00
51759;BME280;66684;47.568;18.734;2023-05-14T00:45:26;99864.69;;;11.57;100.00
51759;BME280;66684;47.568;18.734;2023-05-14T00:47:53;99864.22;;;11.46;100.00
51759;BME280;66684;47.568;18.734;2023-05-14T00:50:19;99864.44;;;11.51;100.00
51759;BME280;66684;47.568;18.734;2023-05-14T00:52:46;99851.22;;;11.45;100.00
51759;BME280;66684;47.568;18.734;2023-05-14T00:55:15;99855.59;;;11.46;100.00
51759;BME280;66684;47.568;18.734;2023-05-14T00:57:42;99851.22;;;11.45;100.00
51759;BME280;66684;47.568;18.734;2023-05-14T01:00:08;99854.50;;;11.41;100.00
51759;BME280;66684;47.568;18.734;2023-05-14T01:02:34;99847.81;;;11.46;100.00
51759;BME280;66684;47.568;18.734;2023-05-14T01:05:00;99854.50;;;11.41;100.00
51759;BME280;66684;47.568;18.734;2023-05-14T01:12:42;99836.44;;;11.42;100.00
51759;BME280;66684;47.568;18.734;2023-05-14T01:15:17;99831.78;;;11.33;100.00
51759;BME280;66684;47.568;18.734;2023-05-14T01:17:58;99833.66;;;11.38;100.00
51759;BME280;66684;47.568;18.734;2023-05-14T01:20:26;99822.84;;;11.25;100.00
51759;BME280;66684;47.568;18.734;2023-05-14T01:22:52;99825.84;;;11.36;100.00
51759;BME280;66684;47.568;18.734;2023-05-14T01:25:17;99833.09;;;11.24;100.00
51759;BME280;66684;47.568;18.734;2023-05-14T01:30:41;99823.84;;;11.08;100.00
51759;BME280;66684;47.568;18.734;2023-05-14T01:33:13;99809.56;;;11.18;100.00
51759;BME280;66684;47.568;18.734;2023-05-14T01:35:41;99810.97;;;11.10;100.00
51759;BME280;66684;47.568;18.734;2023-05-14T01:38:10;99800.63;;;11.10;100.00
51759;BME280;66684;47.568;18.734;2023-05-14T01:40:37;99798.50;;;11.20;100.00
51759;BME280;66684;47.568;18.734;2023-05-14T01:43:04;99798.41;;;11.19;100.00
51759;BME280;66684;47.568;18.734;2023-05-14T01:45:33;99792.44;;;11.20;100.00
51759;BME280;66684;47.568;18.734;2023-05-14T01:47:59;99789.66;;;11.15;100.00
51759;BME280;66684;47.568;18.734;2023-05-14T01:50:25;99784.91;;;11.05;100.00
51759;BME280;66684;47.568;18.734;2023-05-14T01:52:51;99775.69;;;11.12;100.00
51759;BME280;66684;47.568;18.734;2023-05-14T01:55:24;99771.25;;;11.07;100.00
51759;BME280;66684;47.568;18.734;2023-05-14T01:57:50;99769.44;;;10.86;100.00
51759;BME280;66684;47.568;18.734;2023-05-14T02:00:17;99769.66;;;10.90;100.00
51759;BME280;66684;47.568;18.734;2023-05-14T02:02:43;99768.22;;;10.97;100.00
51759;BME280;66684;47.568;18.734;2023-05-14T02:05:10;99774.16;;;10.94;100.00
51759;BME280;66684;47.568;18.734;2023-05-14T02:07:36;99768.09;;;10.94;100.00
51759;BME280;66684;47.568;18.734;2023-05-14T02:10:03;99762.78;;;10.91;100.00
51759;BME280;66684;47.568;18.734;2023-05-14T02:12:29;99768.97;;;10.94;100.00
51759;BME280;66684;47.568;18.734;2023-05-14T02:14:55;99770.84;;;10.98;100.00
51759;BME280;66684;47.568;18.734;2023-05-14T02:17:20;99761.78;;;11.08;100.00
51759;BME280;66684;47.568;18.734;2023-05-14T02:19:46;99770.63;;;11.13;100.00
51759;BME280;66684;47.568;18.734;2023-05-14T02:22:12;99762.41;;;11.02;100.00
51759;BME280;66684;47.568;18.734;2023-05-14T02:24:38;99761.91;;;10.90;100.00
51759;BME280;66684;47.568;18.734;2023-05-14T02:27:04;99749.75;;;10.88;100.00
51759;BME280;66684;47.568;18.734;2023-05-14T02:29:31;99749.84;;;10.91;100.00
51759;BME280;66684;47.568;18.734;2023-05-14T02:31:56;99749.16;;;10.95;100.00
51759;BME280;66684;47.568;18.734;2023-05-14T02:34:23;99749.28;;;10.98;100.00
51759;BME280;66684;47.568;18.734;2023-05-14T02:36:49;99740.34;;;10.90;100.00
51759;BME280;66684;47.568;18.734;2023-05-14T02:39:15;99740.19;;;10.87;100.00
51759;BME280;66684;47.568;18.734;2023-05-14T02:41:41;99733.41;;;10.89;100.00
51759;BME280;66684;47.568;18.734;2023-05-14T02:44:07;99730.25;;;10.96;100.00
51759;BME280;66684;47.568;18.734;2023-05-14T02:46:33;99728.59;;;10.98;100.00
51759;BME280;66684;47.568;18.734;2023-05-14T02:48:59;99732.31;;;11.04;100.00
51759;BME280;66684;47.568;18.734;2023-05-14T02:51:25;99735.91;;;11.08;100.00
51759;BME280;66684;47.568;18.734;2023-05-14T02:53:51;99724.84;;;11.12;100.00
51759;BME280;66684;47.568;18.734;2023-05-14T02:56:17;99733.75;;;11.19;100.00
51759;BME280;66684;47.568;18.734;2023-05-14T02:58:43;99726.19;;;11.23;100.00
51759;BME280;66684;47.568;18.734;2023-05-14T03:01:09;99724.31;;;11.19;100.00
51759;BME280;66684;47.568;18.734;2023-05-14T03:03:35;99726.19;;;11.23;100.00
51759;BME280;66684;47.568;18.734;2023-05-14T03:06:01;99727.69;;;11.18;100.00
51759;BME280;66684;47.568;18.734;2023-05-14T03:08:27;99727.59;;;11.15;100.00
51759;BME280;66684;47.568;18.734;2023-05-14T03:10:52;99732.88;;;11.18;100.00
51759;BME280;66684;47.568;18.734;2023-05-14T03:13:18;99721.38;;;11.12;100.00
51759;BME280;66684;47.568;18.734;2023-05-14T03:15:45;99728.47;;;11.16;100.00
51759;BME280;66684;47.568;18.734;2023-05-14T03:18:12;99730.94;;;11.13;100.00
51759;BME280;66684;47.568;18.734;2023-05-14T03:20:40;99743.09;;;11.15;100.00
51759;BME280;66684;47.568;18.734;2023-05-14T03:23:06;99729.00;;;11.07;100.00
51759;BME280;66684;47.568;18.734;2023-05-14T03:25:32;99734.00;;;11.04;100.00
51759;BME280;66684;47.568;18.734;2023-05-14T03:27:59;99733.75;;;10.98;100.00
51759;BME280;66684;47.568;18.734;2023-05-14T03:30:25;99734.75;;;10.80;100.00
51759;BME280;66684;47.568;18.734;2023-05-14T03:32:50;99739.19;;;10.83;100.00
51759;BME280;66684;47.568;18.734;2023-05-14T03:35:16;99729.09;;;10.68;100.00
51759;BME280;66684;47.568;18.734;2023-05-14T03:37:42;99736.16;;;10.72;100.00
51759;BME280;66684;47.568;18.734;2023-05-14T03:40:08;99734.91;;;10.84;100.00
51759;BME280;66684;47.568;18.734;2023-05-14T03:42:34;99736.56;;;10.82;100.00
51759;BME280;66684;47.568;18.734;2023-05-14T03:45:00;99739.06;;;10.80;100.00
51759;BME280;66684;47.568;18.734;2023-05-14T03:47:26;99734.50;;;10.74;100.00
51759;BME280;66684;47.568;18.734;2023-05-14T03:49:52;99745.06;;;10.79;100.00
51759;BME280;66684;47.568;18.734;2023-05-14T03:52:18;99745.00;;;10.77;100.00
51759;BME280;66684;47.568;18.734;2023-05-14T03:54:44;99750.16;;;10.77;100.00
51759;BME280;66684;47.568;18.734;2023-05-14T03:57:10;99758.34;;;10.67;100.00
51759;BME280;66684;47.568;18.734;2023-05-14T03:59:36;99755.19;;;10.74;100.00
51759;BME280;66684;47.568;18.734;2023-05-14T04:02:02;99744.75;;;10.71;100.00
51759;BME280;66684;47.568;18.734;2023-05-14T04:04:27;99746.50;;;10.72;100.00
51759;BME280;66684;47.568;18.734;2023-05-14T04:06:53;99742.87;;;10.88;100.00
51759;BME280;66684;47.568;18.734;2023-05-14T04:09:19;99751.41;;;10.87;100.00
51759;BME280;66684;47.568;18.734;2023-05-14T04:11:45;99754.34;;;10.95;100.00
51759;BME280;66684;47.568;18.734;2023-05-14T04:14:11;99740.59;;;10.96;100.00
51759;BME280;66684;47.568;18.734;2023-05-14T04:16:37;99733.75;;;10.98;100.00
51759;BME280;66684;47.568;18.734;2023-05-14T04:19:03;99726.47;;;10.88;100.00
51759;BME280;66684;47.568;18.734;2023-05-14T04:21:30;99729.41;;;10.97;100.00
51759;BME280;66684;47.568;18.734;2023-05-14T04:23:56;99728.50;;;10.95;100.00
51759;BME280;66684;47.568;18.734;2023-05-14T04:26:22;99722.50;;;10.96;100.00
51759;BME280;66684;47.568;18.734;2023-05-14T04:28:48;99711.44;;;11.00;100.00
51759;BME280;66684;47.568;18.734;2023-05-14T04:31:14;99714.22;;;11.04;100.00
51759;BME280;66684;47.568;18.734;2023-05-14T04:33:40;99716.34;;;11.15;100.00
51759;BME280;66684;47.568;18.734;2023-05-14T04:36:07;99721.00;;;11.23;100.00
51759;BME280;66684;47.568;18.734;2023-05-14T04:38:33;99735.91;;;11.08;100.00
51759;BME280;66684;47.568;18.734;2023-05-14T04:40:59;99727.34;;;11.09;100.00
51759;BME280;66684;47.568;18.734;2023-05-14T04:43:24;99722.03;;;11.06;100.00
51759;BME280;66684;47.568;18.734;2023-05-14T04:45:50;99725.69;;;11.11;100.00
51759;BME280;66684;47.568;18.734;2023-05-14T04:48:17;99721.38;;;11.12;100.00
51759;BME280;66684;47.568;18.734;2023-05-14T04:50:43;99718.87;;;11.13;100.00
51759;BME280;66684;47.568;18.734;2023-05-14T04:53:09;99721.91;;;11.03;100.00
51759;BME280;66684;47.568;18.734;2023-05-14T04:55:35;99715.09;;;11.05;100.00
51759;BME280;66684;47.568;18.734;2023-05-14T04:58:02;99714.66;;;11.15;100.00
51759;BME280;66684;47.568;18.734;2023-05-14T05:00:28;99712.16;;;11.18;100.00
51759;BME280;66684;47.568;18.734;2023-05-14T05:02:54;99716.12;;;11.08;100.00
51759;BME280;66684;47.568;18.734;2023-05-14T05:05:20;99706.16;;;10.97;100.00
51759;BME280;66684;47.568;18.734;2023-05-14T05:07:46;99717.63;;;11.03;100.00
51759;BME280;66684;47.568;18.734;2023-05-14T05:10:12;99714.22;;;11.04;100.00
51759;BME280;66684;47.568;18.734;2023-05-14T05:12:38;99715.22;;;11.08;100.00
51759;BME280;66684;47.568;18.734;2023-05-14T05:15:04;99716.25;;;10.91;100.00
51759;BME280;66684;47.568;18.734;2023-05-14T05:17:31;99722.09;;;10.87;100.00
51759;BME280;66684;47.568;18.734;2023-05-14T05:19:56;99716.59;;;11.00;100.00
51759;BME280;66684;47.568;18.734;2023-05-14T05:22:23;99725.56;;;10.87;100.00
51759;BME280;66684;47.568;18.734;2023-05-14T05:24:49;99716.00;;;10.85;100.00
51759;BME280;66684;47.568;18.734;2023-05-14T05:27:14;99714.53;;;10.91;100.00
51759;BME280;66684;47.568;18.734;2023-05-14T05:29:42;99719.75;;;10.93;100.00
51759;BME280;66684;47.568;18.734;2023-05-14T05:32:08;99714.16;;;11.03;100.00
51759;BME280;66684;47.568;18.734;2023-05-14T05:34:34;99716.50;;;10.97;100.00
51759;BME280;66684;47.568;18.734;2023-05-14T05:37:00;99712.16;;;10.96;100.00
51759;BME280;66684;47.568;18.734;2023-05-14T05:39:26;99713.34;;;11.04;100.00
51759;BME280;66684;47.568;18.734;2023-05-14T05:41:52;99706.47;;;11.04;100.00
51759;BME280;66684;47.568;18.734;2023-05-14T05:44:18;99708.53;;;11.13;100.00
51759;BME280;66684;47.568;18.734;2023-05-14T05:46:44;99706.75;;;11.12;100.00
51759;BME280;66684;47.568;18.734;2023-05-14T05:49:10;99701.34;;;11.06;100.00
51759;BME280;66684;47.568;18.734;2023-05-14T05:51:36;99713.72;;;11.13;100.00
51759;BME280;66684;47.568;18.734;2023-05-14T05:54:02;99710.87;;;11.07;100.00
51759;BME280;66684;47.568;18.734;2023-05-14T05:56:28;99717.03;;;11.11;100.00
51759;BME280;66684;47.568;18.734;2023-05-14T05:58:53;99708.66;;;11.16;100.00
51759;BME280;66684;47.568;18.734;2023-05-14T06:01:19;99712.06;;;11.15;100.00
51759;BME280;66684;47.568;18.734;2023-05-14T06:03:45;99713.47;;;11.07;100.00
51759;BME280;66684;47.568;18.734;2023-05-14T06:06:11;99718.25;;;10.98;100.00
51759;BME280;66684;47.568;18.734;2023-05-14T06:08:37;99714.22;;;10.84;100.00
51759;BME280;66684;47.568;18.734;2023-05-14T06:11:03;99714.47;;;10.90;100.00
51759;BME280;66684;47.568;18.734;2023-05-14T06:13:29;99717.75;;;10.86;100.00
51759;BME280;66684;47.568;18.734;2023-05-14T06:15:55;99722.44;;;10.94;100.00
51759;BME280;66684;47.568;18.734;2023-05-14T06:18:20;99718.25;;;10.98;100.00
51759;BME280;66684;47.568;18.734;2023-05-14T06:20:46;99715.66;;;10.98;100.00
51759;BME280;66684;47.568;18.734;2023-05-14T06:23:12;99714.72;;;10.96;100.00
51759;BME280;66684;47.568;18.734;2023-05-14T06:25:38;99719.28;;;11.01;100.00
51759;BME280;66684;47.568;18.734;2023-05-14T06:28:04;99716.34;;;11.15;100.00
51759;BME280;66684;47.568;18.734;2023-05-14T06:30:30;99718.87;;;11.13;100.00
51759;BME280;66684;47.568;18.734;2023-05-14T06:32:56;99720.47;;;11.10;100.00
51759;BME280;66684;47.568;18.734;2023-05-14T06:35:22;99727.28;;;11.07;100.00
51759;BME280;66684;47.568;18.734;2023-05-14T06:37:48;99720.50;;;11.11;100.00
51759;BME280;66684;47.568;18.734;2023-05-14T06:40:14;99715.72;;;11.20;100.00
51759;BME280;66684;47.568;18.734;2023-05-14T06:42:40;99714.31;;;11.28;100.00
51759;BME280;66684;47.568;18.734;2023-05-14T06:45:07;99710.78;;;11.26;100.00
51759;BME280;66684;47.568;18.734;2023-05-14T06:47:33;99712.31;;;11.21;100.00
51759;BME280;66684;47.568;18.734;2023-05-14T06:49:59;99701.81;;;11.18;100.00
51759;BME280;66684;47.568;18.734;2023-05-14T06:52:26;99701.53;;;11.11;100.00
51759;BME280;66684;47.568;18.734;2023-05-14T06:54:52;99705.25;;;11.17;100.00
51759;BME280;66684;47.568;18.734;2023-05-14T06:57:18;99709.66;;;11.20;100.00
51759;BME280;66684;47.568;18.734;2023-05-14T06:59:44;99705.84;;;11.32;100.00
51759;BME280;66684;47.568;18.734;2023-05-14T07:02:10;99698.50;;;11.43;100.00
51759;BME280;66684;47.568;18.734;2023-05-14T07:04:36;99700.19;;;11.43;100.00
51759;BME280;66684;47.568;18.734;2023-05-14T07:07:02;99692.75;;;11.50;100.00
51759;BME280;66684;47.568;18.734;2023-05-14T07:09:28;99682.00;;;11.40;100.00
51759;BME280;66684;47.568;18.734;2023-05-14T07:11:54;99686.81;;;11.53;100.00
51759;BME280;66684;47.568;18.734;2023-05-14T07:14:20;99684.44;;;11.59;100.00
51759;BME280;66684;47.568;18.734;2023-05-14T07:16:45;99686.34;;;11.63;100.00
51759;BME280;66684;47.568;18.734;2023-05-14T07:19:11;99686.34;;;11.63;100.00
51759;BME280;66684;47.568;18.734;2023-05-14T07:21:37;99688.31;;;11.70;100.00
51759;BME280;66684;47.568;18.734;2023-05-14T07:24:04;99676.97;;;11.67;100.00
51759;BME280;66684;47.568;18.734;2023-05-14T07:26:30;99680.06;;;11.80;100.00
51759;BME280;66684;47.568;18.734;2023-05-14T07:28:56;99676.78;;;11.84;100.00
51759;BME280;66684;47.568;18.734;2023-05-14T07:31:22;99673.59;;;11.92;100.00
51759;BME280;66684;47.568;18.734;2023-05-14T07:33:48;99678.06;;;11.96;100.00
51759;BME280;66684;47.568;18.734;2023-05-14T07:36:14;99670.31;;;11.96;100.00
51759;BME280;66684;47.568;18.734;2023-05-14T07:38:40;99671.22;;;11.98;100.00
51759;BME280;66684;47.568;18.734;2023-05-14T07:41:05;99670.56;;;12.03;100.00
51759;BME280;66684;47.568;18.734;2023-05-14T07:43:32;99671.72;;;12.11;100.00
51759;BME280;66684;47.568;18.734;2023-05-14T07:45:58;99668.25;;;12.11;100.00
51759;BME280;66684;47.568;18.734;2023-05-14T07:48:24;99662.56;;;12.21;100.00
51759;BME280;66684;47.568;18.734;2023-05-14T07:50:50;99662.03;;;12.31;100.00
51759;BME280;66684;47.568;18.734;2023-05-14T07:53:16;99662.00;;;12.30;100.00
51759;BME280;66684;47.568;18.734;2023-05-14T07:55:43;99665.47;;;12.30;100.00
51759;BME280;66684;47.568;18.734;2023-05-14T07:58:10;99671.03;;;12.41;100.00
51759;BME280;66684;47.568;18.734;2023-05-14T08:00:36;99665.81;;;12.39;100.00
51759;BME280;66684;47.568;18.734;2023-05-14T08:03:02;99662.22;;;12.36;100.00
51759;BME280;66684;47.568;18.734;2023-05-14T08:05:28;99660.28;;;12.56;100.00
51759;BME280;66684;47.568;18.734;2023-05-14T08:07:53;99651.00;;;12.62;100.00
51759;BME280;66684;47.568;18.734;2023-05-14T08:10:19;99656.78;;;12.54;100.00
51759;BME280;66684;47.568;18.734;2023-05-14T08:12:45;99649.84;;;12.53;100.00
51759;BME280;66684;47.568;18.734;2023-05-14T08:15:11;99645.38;;;12.49;100.00
51759;BME280;66684;47.568;18.734;2023-05-14T08:17:37;99649.91;;;12.56;100.00
51759;BME280;66684;47.568;18.734;2023-05-14T08:20:03;99639.56;;;12.56;100.00
51759;BME280;66684;47.568;18.734;2023-05-14T08:22:31;99641.31;;;12.57;100.00
51759;BME280;66684;47.568;18.734;2023-05-14T08:24:57;99632.38;;;12.74;100.00
51759;BME280;66684;47.568;18.734;2023-05-14T08:27:23;99618.28;;;12.66;100.00
51759;BME280;66684;47.568;18.734;2023-05-14T08:29:48;99624.50;;;12.71;100.00
51759;BME280;66684;47.568;18.734;2023-05-14T08:32:14;99616.19;;;12.81;100.00
51759;BME280;66684;47.568;18.734;2023-05-14T08:34:40;99622.34;;;12.85;100.00
51759;BME280;66684;47.568;18.734;2023-05-14T08:37:06;99615.53;;;12.88;100.00
51759;BME280;66684;47.568;18.734;2023-05-14T08:39:32;99604.44;;;12.92;100.00
51759;BME280;66684;47.568;18.734;2023-05-14T08:41:59;99607.88;;;12.91;100.00
51759;BME280;66684;47.568;18.734;2023-05-14T08:45:01;99602.03;;;12.99;100.00
51759;BME280;66684;47.568;18.734;2023-05-14T08:47:28;99609.09;;;13.03;100.00
51759;BME280;66684;47.568;18.734;2023-05-14T08:50:01;99609.94;;;13.02;100.00
51759;BME280;66684;47.568;18.734;2023-05-14T08:52:29;99606.69;;;13.09;100.00
51759;BME280;66684;47.568;18.734;2023-05-14T08:54:58;99602.38;;;13.09;100.00
51759;BME280;66684;47.568;18.734;2023-05-14T08:57:25;99600.53;;;13.07;100.00
51759;BME280;66684;47.568;18.734;2023-05-14T08:59:52;99600.09;;;13.20;100.00
51759;BME280;66684;47.568;18.734;2023-05-14T09:02:22;99604.75;;;13.30;100.00
51759;BME280;66684;47.568;18.734;2023-05-14T09:04:57;99609.91;;;13.29;100.00
51759;BME280;66684;47.568;18.734;2023-05-14T09:07:24;99610.75;;;13.28;100.00
51759;BME280;66684;47.568;18.734;2023-05-14T09:09:51;99609.78;;;13.26;100.00
51759;BME280;66684;47.568;18.734;2023-05-14T09:12:17;99626.25;;;13.26;100.00
51759;BME280;66684;47.568;18.734;2023-05-14T09:14:44;99615.78;;;13.23;100.00
51759;BME280;66684;47.568;18.734;2023-05-14T09:17:10;99616.06;;;13.05;100.00
51759;BME280;66684;47.568;18.734;2023-05-14T09:19:40;99610.31;;;13.14;100.00
51759;BME280;66684;47.568;18.734;2023-05-14T09:22:14;99601.38;;;13.06;100.00
51759;BME280;66684;47.568;18.734;2023-05-14T09:24:41;99598.94;;;13.10;100.00
51759;BME280;66684;47.568;18.734;2023-05-14T09:27:08;99598.47;;;13.22;100.00
51759;BME280;66684;47.568;18.734;2023-05-14T09:29:35;99590.53;;;13.19;100.00
51759;BME280;66684;47.568;18.734;2023-05-14T09:32:01;99597.22;;;13.11;100.00
51759;BME280;66684;47.568;18.734;2023-05-14T09:34:33;99595.28;;;13.04;100.00
51759;BME280;66684;47.568;18.734;2023-05-14T09:37:06;99584.28;;;13.12;100.00
51759;BME280;66684;47.568;18.734;2023-05-14T09:39:33;99587.75;;;13.13;100.00
51759;BME280;66684;47.568;18.734;2023-05-14T09:42:01;99587.75;;;13.13;100.00
51759;BME280;66684;47.568;18.734;2023-05-14T09:44:28;99585.06;;;13.08;100.00
51759;BME280;66684;47.568;18.734;2023-05-14T09:46:54;99587.56;;;13.07;100.00
51759;BME280;66684;47.568;18.734;2023-05-14T09:49:21;99575.75;;;13.15;100.00
51759;BME280;66684;47.568;18.734;2023-05-14T09:51:48;99569.94;;;13.22;100.00
51759;BME280;66684;47.568;18.734;2023-05-14T09:54:14;99560.47;;;13.24;100.00
51759;BME280;66684;47.568;18.734;2023-05-14T09:56:42;99565.66;;;13.24;100.00
51759;BME280;66684;47.568;18.734;2023-05-14T09:59:08;99556.75;;;13.16;100.00
51759;BME280;66684;47.568;18.734;2023-05-14T10:01:34;99560.56;;;13.27;100.00
51759;BME280;66684;47.568;18.734;2023-05-14T10:04:02;99544.88;;;13.24;100.00
51759;BME280;66684;47.568;18.734;2023-05-14T10:06:34;99541.63;;;13.31;100.00
51759;BME280;66684;47.568;18.734;2023-05-14T10:09:03;99525.31;;;13.35;100.00
51759;BME280;66684;47.568;18.734;2023-05-14T10:11:32;99520.19;;;13.38;100.00
51759;BME280;66684;47.568;18.734;2023-05-14T10:14:06;99515.94;;;13.40;100.00
51759;BME280;66684;47.568;18.734;2023-05-14T10:16:34;99511.84;;;13.48;100.00
51759;BME280;66684;47.568;18.734;2023-05-14T10:19:07;99512.59;;;13.44;100.00
51759;BME280;66684;47.568;18.734;2023-05-14T10:21:35;99509.00;;;13.39;100.00
51759;BME280;66684;47.568;18.734;2023-05-14T10:24:03;99499.03;;;13.23;100.00
51759;BME280;66684;47.568;18.734;2023-05-14T10:26:31;99496.59;;;13.29;100.00
51759;BME280;66684;47.568;18.734;2023-05-14T10:28:57;99502.66;;;13.30;100.00
51759;BME280;66684;47.568;18.734;2023-05-14T10:37:01;99494.28;;;13.10;100.00
51759;BME280;66684;47.568;18.734;2023-05-14T10:42:20;99499.00;;;13.21;100.00
51759;BME280;66684;47.568;18.734;2023-05-14T10:44:57;99478.56;;;13.04;100.00
51759;BME280;66684;47.568;18.734;2023-05-14T10:47:25;99491.41;;;13.01;100.00
51759;BME280;66684;47.568;18.734;2023-05-14T10:49:53;99488.75;;;12.98;100.00
51759;BME280;66684;47.568;18.734;2023-05-14T10:52:21;99482.66;;;12.67;100.00
51759;BME280;66684;47.568;18.734;2023-05-14T10:57:17;99487.19;;;12.46;100.00
51759;BME280;66684;47.568;18.734;2023-05-14T10:59:46;99482.28;;;12.55;100.00
51759;BME280;66684;47.568;18.734;2023-05-14T11:02:30;99482.69;;;12.40;100.00
51759;BME280;66684;47.568;18.734;2023-05-14T11:07:36;99478.78;;;12.53;100.00
51759;BME280;66684;47.568;18.734;2023-05-14T11:10:12;99476.53;;;12.63;100.00
51759;BME280;66684;47.568;18.734;2023-05-14T11:12:40;99477.06;;;12.53;100.00
51759;BME280;66684;47.568;18.734;2023-05-14T11:15:08;99473.66;;;12.56;100.00
51759;BME280;66684;47.568;18.734;2023-05-14T11:17:35;99461.84;;;12.64;100.00
51759;BME280;66684;47.568;18.734;2023-05-14T11:20:02;99467.22;;;12.70;100.00
51759;BME280;66684;47.568;18.734;2023-05-14T11:22:30;99465.72;;;12.78;100.00
51759;BME280;66684;47.568;18.734;2023-05-14T11:24:55;99466.38;;;12.71;100.00
51759;BME280;66684;47.568;18.734;2023-05-14T11:27:22;99465.78;;;12.81;100.00
51759;BME280;66684;47.568;18.734;2023-05-14T11:29:49;99470.28;;;12.87;100.00
51759;BME280;66684;47.568;18.734;2023-05-14T11:32:15;99471.81;;;12.80;100.00
51759;BME280;66684;47.568;18.734;2023-05-14T11:34:42;99474.50;;;12.83;100.00
51759;BME280;66684;47.568;18.734;2023-05-14T11:37:13;99475.50;;;12.88;100.00
51759;BME280;66684;47.568;18.734;2023-05-14T11:39:49;99469.41;;;12.86;100.00
51759;BME280;66684;47.568;18.734;2023-05-14T11:42:17;99467.72;;;12.88;100.00
51759;BME280;66684;47.568;18.734;2023-05-14T11:44:48;99453.84;;;12.86;100.00
51759;BME280;66684;47.568;18.734;2023-05-14T11:47:18;99455.59;;;12.87;100.00
51759;BME280;66684;47.568;18.734;2023-05-14T11:49:44;99452.25;;;12.91;100.00
51759;BME280;66684;47.568;18.734;2023-05-14T11:54:55;99450.50;;;12.90;100.00
51759;BME280;66684;47.568;18.734;2023-05-14T11:57:21;99442.94;;;12.68;100.00
51759;BME280;66684;47.568;18.734;2023-05-14T11:59:48;99446.47;;;12.70;100.00
51759;BME280;66684;47.568;18.734;2023-05-14T12:02:20;99440.44;;;12.71;100.00
51759;BME280;66684;47.568;18.734;2023-05-14T12:04:50;99440.12;;;12.60;100.00
51759;BME280;66684;47.568;18.734;2023-05-14T12:07:19;99431.00;;;12.73;100.00
51759;BME280;66684;47.568;18.734;2023-05-14T12:09:46;99422.37;;;12.74;100.00
51759;BME280;66684;47.568;18.734;2023-05-14T12:12:21;99413.75;;;12.75;100.00
51759;BME280;66684;47.568;18.734;2023-05-14T12:14:48;99421.03;;;12.88;100.00
51759;BME280;66684;47.568;18.734;2023-05-14T12:19:42;99412.19;;;12.80;100.00
51759;BME280;66684;47.568;18.734;2023-05-14T12:22:13;99398.47;;;12.84;100.00
51759;BME280;66684;47.568;18.734;2023-05-14T12:24:40;99402.81;;;12.85;100.00
51759;BME280;66684;47.568;18.734;2023-05-14T12:27:09;99402.84;;;12.87;100.00
51759;BME280;66684;47.568;18.734;2023-05-14T12:29:38;99399.06;;;12.76;100.00
51759;BME280;66684;47.568;18.734;2023-05-14T12:32:08;99402.78;;;12.54;100.00
51759;BME280;66684;47.568;18.734;2023-05-14T12:34:37;99402.16;;;12.62;100.00
51759;BME280;66684;47.568;18.734;2023-05-14T12:37:04;99392.47;;;12.57;100.00
51759;BME280;66684;47.568;18.734;2023-05-14T12:39:32;99386.88;;;12.72;100.00
51759;BME280;66684;47.568;18.734;2023-05-14T12:41:58;99378.97;;;12.67;100.00
51759;BME280;66684;47.568;18.734;2023-05-14T12:44:24;99382.13;;;12.57;100.00
51759;BME280;66684;47.568;18.734;2023-05-14T12:46:50;99387.41;;;12.60;100.00
51759;BME280;66684;47.568;18.734;2023-05-14T12:49:16;99374.53;;;12.63;100.00
51759;BME280;66684;47.568;18.734;2023-05-14T12:51:41;99368.69;;;12.70;100.00
51759;BME280;66684;47.568;18.734;2023-05-14T12:54:08;99370.28;;;12.65;100.00
51759;BME280;66684;47.568;18.734;2023-05-14T12:56:37;99365.84;;;12.61;100.00
51759;BME280;66684;47.568;18.734;2023-05-14T12:59:03;99373.78;;;12.67;100.00
51759;BME280;66684;47.568;18.734;2023-05-14T13:01:29;99358.94;;;12.61;100.00
51759;BME280;66684;47.568;18.734;2023-05-14T13:03:55;99348.41;;;12.57;100.00
51759;BME280;66684;47.568;18.734;2023-05-14T13:06:23;99342.91;;;12.45;100.00